Time;durP1;ratioP1;P1;durP2;ratioP2;P2;SDS_P1;SDS_P2;PMS_P1;PMS_P2;Temp;Humidity;BMP_temperature;BMP_pressure;BME280_temperature;BME280_humidity;BME280_pressure;Samples;Min_cycle;Max_cycle;Signal;HPM_P1;HPM_P2
2023/07/02 00:02:33;;;;;;;26.67;17.50;;;;;;;;;;6211310;28;20023;-83
2023/07/02 00:05:33;;;;;;;29.80;17.10;;;;;;;;;;6197805;28;20490;-83
2023/07/02 00:08:33;;;;;;;22.80;16.85;;;;;;;;;;6217071;28;20076;-82
2023/07/02 00:11:34;;;;;;;22.85;16.42;;;;;;;;;;6219765;28;20798;-82
2023/07/02 00:14:35;;;;;;;28.23;17.43;;;;;;;;;;6220055;28;20025;-82
2023/07/02 00:17:39;;;;;;;21.37;15.63;;;;;;;;;;6219675;28;20014;-83
2023/07/02 00:20:41;;;;;;;23.60;16.25;;;;;;;;;;6202615;28;20022;-82
2023/07/02 00:23:41;;;;;;;;;;;;;;;;;;6220755;28;20084;-82
2023/07/02 00:26:42;;;;;;;25.85;17.02;;;;;;;;;;6219712;28;20272;-82
2023/07/02 00:29:43;;;;;;;23.48;16.25;;;;;;;;;;6219211;28;20861;-84
2023/07/02 00:32:43;;;;;;;22.60;17.40;;;;;;;;;;6219310;28;20042;-84
2023/07/02 00:35:43;;;;;;;23.60;17.10;;;;;;;;;;6218674;28;20074;-83
2023/07/02 00:38:45;;;;;;;24.73;16.70;;;;;;;;;;6213882;28;20020;-84
2023/07/02 00:41:49;;;;;;;23.42;17.48;;;;;;;;;;6219198;28;20104;-82
2023/07/02 00:44:52;;;;;;;22.23;16.55;;;;;;;;;;6201085;28;20044;-83
2023/07/02 00:47:53;;;;;;;25.63;16.80;;;;;;;;;;6214091;28;20018;-82
2023/07/02 00:50:54;;;;;;;24.83;16.75;;;;;;;;;;6215700;28;20018;-81
2023/07/02 00:53:55;;;;;;;23.50;16.73;;;;;;;;;;6218049;28;20538;-82
2023/07/02 00:56:55;;;;;;;22.60;16.85;;;;;;;;;;6200811;28;20080;-83
2023/07/02 00:59:57;;;;;;;22.23;15.07;;;;;;;;;;6219388;28;20112;-82
2023/07/02 01:02:59;;;;;;;21.40;16.50;;;;;;;;;;6217454;28;20037;-83
2023/07/02 01:06:03;;;;;;;;;;;;;;;;;;6218556;28;20017;-82
2023/07/02 01:09:04;;;;;;;26.98;19.15;;;;;;;;;;6218314;28;20375;-82
2023/07/02 01:12:06;;;;;;;23.73;17.77;;;;;;;;;;6219256;28;20492;-83
2023/07/02 01:15:06;;;;;;;22.95;18.13;;;;;;;;;;6213337;28;20014;-82
2023/07/02 01:18:07;;;;;;;22.63;16.83;;;;;;;;;;6213892;28;20076;-83
2023/07/02 01:21:08;;;;;;;26.17;18.03;;;;;;;;;;6215214;28;20835;-82
2023/07/02 01:24:08;;;;;;;27.87;18.50;;;;;;;;;;6217981;28;20029;-82
2023/07/02 01:27:10;;;;;;;26.17;18.73;;;;;;;;;;6219443;28;20503;-81
2023/07/02 01:30:10;;;;;;;27.10;20.70;;;;;;;;;;6219195;28;20527;-83
2023/07/02 01:33:11;;;;;;;20.07;15.37;;;;;;;;;;6216504;28;20038;-81
2023/07/02 01:36:12;;;;;;;26.02;19.10;;;;;;;;;;6218466;28;20010;-83
2023/07/02 01:39:12;;;;;;;24.77;18.03;;;;;;;;;;6218563;28;20025;-83
2023/07/02 01:42:16;;;;;;;27.80;21.40;;;;;;;;;;6200640;28;20712;-82
2023/07/02 01:45:17;;;;;;;24.30;18.08;;;;;;;;;;6194108;28;20033;-82
2023/07/02 01:48:17;;;;;;;28.23;19.87;;;;;;;;;;6200278;28;20365;-83
2023/07/02 01:51:18;;;;;;;28.93;20.60;;;;;;;;;;6214350;28;20527;-83
2023/07/02 01:54:19;;;;;;;29.10;20.83;;;;;;;;;;6218424;28;20021;-83
2023/07/02 01:57:19;;;;;;;28.90;21.47;;;;;;;;;;6216029;28;20033;-81
2023/07/02 02:00:20;;;;;;;30.67;22.90;;;;;;;;;;6218322;28;20369;-81
2023/07/02 02:03:21;;;;;;;30.10;20.30;;;;;;;;;;6215027;28;20800;-83
2023/07/02 02:06:22;;;;;;;64.78;18.05;;;;;;;;;;6218334;28;20018;-81
2023/07/02 02:09:22;;;;;;;93.07;14.23;;;;;;;;;;6218166;28;20480;-82
2023/07/02 02:12:23;;;;;;;113.63;15.87;;;;;;;;;;6217912;28;20464;-81
2023/07/02 02:15:23;;;;;;;122.53;16.17;;;;;;;;;;6217954;28;20025;-81
2023/07/02 02:18:23;;;;;;;85.53;15.75;;;;;;;;;;6217775;28;20022;-81
2023/07/02 02:21:24;;;;;;;37.28;13.55;;;;;;;;;;6217623;28;20026;-82
2023/07/02 02:24:25;;;;;;;17.17;12.95;;;;;;;;;;6199506;28;20104;-81
2023/07/02 02:27:25;;;;;;;20.40;13.65;;;;;;;;;;6217918;28;20063;-82
2023/07/02 02:30:25;;;;;;;40.43;13.67;;;;;;;;;;6217814;28;20022;-78
2023/07/02 02:33:26;;;;;;;38.97;16.73;;;;;;;;;;6200965;28;20049;-82
2023/07/02 02:36:26;;;;;;;33.47;18.03;;;;;;;;;;6222099;28;20115;-81
2023/07/02 02:39:26;;;;;;;59.67;19.77;;;;;;;;;;6220823;28;20496;-81
2023/07/02 02:42:26;;;;;;;93.57;18.63;;;;;;;;;;6204037;28;20105;-82
2023/07/02 02:45:26;;;;;;;42.27;17.63;;;;;;;;;;6217582;28;20539;-82
2023/07/02 02:48:27;;;;;;;33.30;17.97;;;;;;;;;;6220363;28;20496;-79
2023/07/02 02:51:28;;;;;;;58.30;21.27;;;;;;;;;;6220906;28;20385;-80
2023/07/02 02:54:28;;;;;;;36.00;18.88;;;;;;;;;;6221110;28;20061;-80
2023/07/02 02:57:30;;;;;;;111.72;20.92;;;;;;;;;;6221335;28;20025;-79
2023/07/02 03:00:30;;;;;;;104.80;21.90;;;;;;;;;;6221171;28;20018;-80
2023/07/02 03:03:30;;;;;;;30.73;17.23;;;;;;;;;;6221559;28;20115;-81
2023/07/02 03:06:30;;;;;;;46.67;19.37;;;;;;;;;;6221343;28;20018;-80
2023/07/02 03:09:31;;;;;;;41.47;17.23;;;;;;;;;;6221735;28;20068;-80
2023/07/02 03:12:31;;;;;;;30.67;16.07;;;;;;;;;;6216282;28;20076;-80
2023/07/02 03:15:31;;;;;;;31.13;18.98;;;;;;;;;;6221364;28;20022;-81
2023/07/02 03:18:32;;;;;;;24.67;15.65;;;;;;;;;;6217646;28;20030;-81
2023/07/02 03:21:32;;;;;;;28.10;21.07;;;;;;;;;;6220850;28;20029;-80
2023/07/02 03:24:32;;;;;;;34.10;23.20;;;;;;;;;;6201582;28;20016;-75
2023/07/02 03:27:34;;;;;;;28.93;19.67;;;;;;;;;;6221243;28;20535;-76
2023/07/02 03:30:35;;;;;;;34.10;21.98;;;;;;;;;;6187208;28;20033;-75
2023/07/02 03:33:35;;;;;;;31.95;20.38;;;;;;;;;;6220085;28;20388;-76
2023/07/02 03:36:37;;;;;;;25.23;18.73;;;;;;;;;;6220662;28;20019;-75
2023/07/02 03:39:37;;;;;;;31.02;20.20;;;;;;;;;;6220847;28;20026;-76
2023/07/02 03:42:37;;;;;;;29.95;20.58;;;;;;;;;;6218638;28;20498;-76
2023/07/02 03:45:38;;;;;;;33.93;22.83;;;;;;;;;;6214034;28;20010;-76
2023/07/02 03:48:38;;;;;;;37.65;26.23;;;;;;;;;;6218493;28;20032;-75
2023/07/02 03:51:40;;;;;;;34.57;24.83;;;;;;;;;;6220582;28;20071;-76
2023/07/02 03:54:42;;;;;;;37.35;26.95;;;;;;;;;;6220731;28;20076;-76
2023/07/02 03:57:42;;;;;;;43.20;29.85;;;;;;;;;;6220763;28;20049;-76
2023/07/02 04:00:44;;;;;;;39.83;29.13;;;;;;;;;;6220366;28;20024;-76
2023/07/02 04:03:50;;;;;;;41.65;28.25;;;;;;;;;;6219631;28;20018;-75
2023/07/02 04:06:51;;;;;;;43.05;31.92;;;;;;;;;;6212697;28;20503;-76
2023/07/02 04:09:51;;;;;;;40.63;27.20;;;;;;;;;;6220253;28;20014;-76
2023/07/02 04:12:51;;;;;;;33.63;23.23;;;;;;;;;;6219438;28;20026;-76
2023/07/02 04:15:51;;;;;;;32.63;23.27;;;;;;;;;;6201977;28;20093;-76
2023/07/02 04:18:51;;;;;;;27.08;21.45;;;;;;;;;;6220069;28;20462;-76
2023/07/02 04:21:52;;;;;;;24.07;18.47;;;;;;;;;;6220126;28;20025;-85
2023/07/02 04:24:52;;;;;;;28.20;18.40;;;;;;;;;;6219312;28;20057;-82
2023/07/02 04:27:56;;;;;;;25.05;17.92;;;;;;;;;;6214949;28;20034;-83
2023/07/02 04:30:56;;;;;;;26.85;19.73;;;;;;;;;;6215628;28;20021;-83
2023/07/02 04:33:57;;;;;;;25.45;18.10;;;;;;;;;;6219983;28;20104;-83
2023/07/02 04:36:57;;;;;;;24.93;19.63;;;;;;;;;;6219664;28;20025;-83
2023/07/02 04:39:57;;;;;;;26.30;18.43;;;;;;;;;;6219353;28;20014;-81
2023/07/02 04:42:57;;;;;;;21.75;17.08;;;;;;;;;;6200932;28;20021;-82
2023/07/02 04:45:57;;;;;;;22.43;15.97;;;;;;;;;;6219538;28;20075;-82
2023/07/02 04:48:58;;;;;;;23.03;16.10;;;;;;;;;;6218876;28;20025;-81
2023/07/02 04:51:58;;;;;;;21.60;13.15;;;;;;;;;;6218708;28;20475;-82
2023/07/02 04:54:58;;;;;;;20.15;14.23;;;;;;;;;;6200718;28;20016;-80
2023/07/02 04:57:58;;;;;;;17.55;11.98;;;;;;;;;;6218805;28;20484;-81
2023/07/02 05:00:58;;;;;;;16.30;11.00;;;;;;;;;;6218511;28;20021;-81
2023/07/02 05:03:58;;;;;;;16.55;10.90;;;;;;;;;;6213728;28;20018;-82
2023/07/02 05:07:02;;;;;;;14.85;8.20;;;;;;;;;;6218397;28;20018;-82
2023/07/02 05:10:02;;;;;;;14.55;9.18;;;;;;;;;;6218749;28;20760;-82
2023/07/02 05:13:03;;;;;;;13.17;7.67;;;;;;;;;;6218272;28;20066;-81
2023/07/02 05:16:03;;;;;;;11.87;7.73;;;;;;;;;;6219022;28;20761;-81
2023/07/02 05:19:03;;;;;;;11.63;7.03;;;;;;;;;;6217838;28;20520;-81
2023/07/02 05:22:04;;;;;;;11.00;6.35;;;;;;;;;;6219115;28;20499;-81
2023/07/02 05:25:05;;;;;;;14.00;7.17;;;;;;;;;;6212834;28;20026;-82
2023/07/02 05:28:05;;;;;;;8.63;5.65;;;;;;;;;;6218500;28;20512;-83
2023/07/02 05:31:05;;;;;;;13.20;6.28;;;;;;;;;;6214996;28;20052;-83
2023/07/02 05:34:05;;;;;;;8.53;4.77;;;;;;;;;;6214950;28;20392;-83
2023/07/02 05:37:06;;;;;;;11.40;6.13;;;;;;;;;;6216657;28;20406;-82
2023/07/02 05:40:06;;;;;;;13.13;6.57;;;;;;;;;;6195771;28;20380;-83
2023/07/02 05:43:06;;;;;;;8.40;5.50;;;;;;;;;;6218392;28;20518;-76
2023/07/02 05:46:06;;;;;;;8.90;4.75;;;;;;;;;;6218248;28;20018;-76
2023/07/02 05:49:07;;;;;;;9.25;5.88;;;;;;;;;;6218107;28;20034;-76
2023/07/02 05:52:07;;;;;;;10.33;5.67;;;;;;;;;;6216512;28;20542;-76
2023/07/02 05:55:10;;;;;;;10.18;5.32;;;;;;;;;;6217820;28;20026;-76
2023/07/02 05:58:10;;;;;;;8.90;5.53;;;;;;;;;;6217773;28;20021;-76
2023/07/02 06:01:10;;;;;;;8.27;5.03;;;;;;;;;;6216712;28;20018;-77
2023/07/02 06:04:10;;;;;;;8.83;4.63;;;;;;;;;;6216185;28;20109;-77
2023/07/02 06:07:11;;;;;;;8.77;4.75;;;;;;;;;;6216734;28;20022;-77
2023/07/02 06:10:11;;;;;;;8.97;5.17;;;;;;;;;;6202414;28;20137;-78
2023/07/02 06:13:11;;;;;;;7.87;4.70;;;;;;;;;;6221741;28;20022;-76
2023/07/02 06:16:11;;;;;;;6.10;3.33;;;;;;;;;;6218492;28;20457;-75
2023/07/02 06:19:11;;;;;;;7.77;3.50;;;;;;;;;;6221465;28;20018;-77
2023/07/02 06:22:12;;;;;;;7.30;2.97;;;;;;;;;;6220568;28;20072;-77
2023/07/02 06:25:13;;;;;;;7.23;3.23;;;;;;;;;;6217419;28;20084;-76
2023/07/02 06:28:13;;;;;;;4.95;3.08;;;;;;;;;;6215991;28;20805;-76
2023/07/02 06:31:14;;;;;;;5.33;2.77;;;;;;;;;;6196642;28;20109;-76
2023/07/02 06:34:14;;;;;;;5.57;3.03;;;;;;;;;;6220823;28;20018;-76
2023/07/02 06:37:15;;;;;;;6.72;3.58;;;;;;;;;;6221248;28;20493;-76
2023/07/02 06:40:15;;;;;;;5.38;3.17;;;;;;;;;;6218744;28;20079;-75
2023/07/02 06:43:15;;;;;;;5.33;2.40;;;;;;;;;;6220956;28;20048;-76
2023/07/02 06:46:15;;;;;;;5.72;3.33;;;;;;;;;;6217034;28;20125;-76
2023/07/02 06:49:16;;;;;;;6.20;3.07;;;;;;;;;;6221107;28;20030;-76
2023/07/02 06:52:16;;;;;;;6.07;2.70;;;;;;;;;;6197786;28;20214;-82
2023/07/02 06:55:16;;;;;;;5.53;2.97;;;;;;;;;;6221375;28;20030;-81
2023/07/02 06:58:16;;;;;;;5.57;3.40;;;;;;;;;;6201925;28;20064;-81
2023/07/02 07:01:16;;;;;;;6.97;3.73;;;;;;;;;;6219931;28;20038;-82
2023/07/02 07:04:17;;;;;;;7.87;4.57;;;;;;;;;;6199435;28;20103;-81
2023/07/02 07:07:18;;;;;;;5.37;3.17;;;;;;;;;;6220046;28;20033;-79
2023/07/02 07:10:20;;;;;;;5.75;3.03;;;;;;;;;;6220931;28;20140;-81
2023/07/02 07:13:20;;;;;;;6.78;3.20;;;;;;;;;;6221135;28;20030;-82
2023/07/02 07:16:21;;;;;;;;;;;;;;;;;;6218945;28;20384;-81
2023/07/02 07:19:24;;;;;;;8.07;3.23;;;;;;;;;;6219663;28;20319;-82
2023/07/02 07:22:24;;;;;;;4.72;2.97;;;;;;;;;;6219927;28;20033;-80
2023/07/02 07:25:24;;;;;;;;;;;;;;;;;;6220221;28;20049;-81
2023/07/02 07:28:24;;;;;;;5.23;3.20;;;;;;;;;;6225124;28;20007;-80
2023/07/02 07:31:24;;;;;;;8.77;3.50;;;;;;;;;;6221636;28;20273;-80
2023/07/02 07:34:25;;;;;;;6.87;2.90;;;;;;;;;;6219221;28;20361;-82
2023/07/02 07:37:25;;;;;;;5.47;3.07;;;;;;;;;;6224087;28;20387;-81
2023/07/02 07:40:25;;;;;;;7.60;3.40;;;;;;;;;;6214078;28;20113;-80
2023/07/02 07:43:25;;;;;;;7.40;2.90;;;;;;;;;;6219570;28;20037;-80
2023/07/02 07:46:26;;;;;;;3.77;2.77;;;;;;;;;;6221171;28;20061;-80
2023/07/02 07:49:26;;;;;;;4.17;2.60;;;;;;;;;;6221751;28;20082;-81
2023/07/02 07:52:26;;;;;;;10.03;3.53;;;;;;;;;;6216341;28;20029;-76
2023/07/02 07:55:27;;;;;;;5.38;3.08;;;;;;;;;;6226620;28;20033;-76
2023/07/02 07:58:27;;;;;;;6.33;2.83;;;;;;;;;;6222682;28;20048;-75
2023/07/02 08:01:28;;;;;;;6.13;2.60;;;;;;;;;;6219834;28;20440;-76
2023/07/02 08:04:28;;;;;;;5.18;2.95;;;;;;;;;;6218901;28;20048;-75
2023/07/02 08:07:28;;;;;;;5.30;3.20;;;;;;;;;;6225944;28;20511;-75
2023/07/02 08:10:28;;;;;;;5.37;3.13;;;;;;;;;;6222574;28;20021;-75
2023/07/02 08:13:29;;;;;;;5.53;2.80;;;;;;;;;;6222341;28;20482;-79
2023/07/02 08:16:29;;;;;;;6.30;3.00;;;;;;;;;;6219012;28;20030;-80
2023/07/02 08:19:29;;;;;;;9.13;4.30;;;;;;;;;;6217409;28;20473;-80
2023/07/02 08:22:30;;;;;;;8.50;4.10;;;;;;;;;;6222464;28;20029;-80
2023/07/02 08:25:30;;;;;;;11.52;5.18;;;;;;;;;;6219778;28;20033;-79
2023/07/02 08:28:31;;;;;;;6.90;3.13;;;;;;;;;;6219604;28;20037;-80
2023/07/02 08:31:31;;;;;;;13.73;5.80;;;;;;;;;;6212602;28;20409;-81
2023/07/02 08:34:31;;;;;;;8.87;4.13;;;;;;;;;;6215054;28;20018;-80
2023/07/02 08:37:31;;;;;;;5.10;3.00;;;;;;;;;;6211377;28;20080;-80
2023/07/02 08:40:32;;;;;;;7.57;3.47;;;;;;;;;;6218992;28;20046;-80
2023/07/02 08:43:32;;;;;;;5.75;3.45;;;;;;;;;;6213870;28;20021;-80
2023/07/02 08:46:32;;;;;;;6.07;3.80;;;;;;;;;;6206993;28;20026;-80
2023/07/02 08:49:32;;;;;;;6.00;3.90;;;;;;;;;;6212651;28;20097;-81
2023/07/02 08:52:33;;;;;;;5.63;3.37;;;;;;;;;;6213724;28;20583;-81
2023/07/02 08:55:33;;;;;;;9.47;4.00;;;;;;;;;;6218918;28;20030;-81
2023/07/02 08:58:36;;;;;;;5.37;3.50;;;;;;;;;;6215386;28;20030;-79
2023/07/02 09:01:49;;;;;;;8.63;3.70;;;;;;;;;;6218117;28;20064;-81
2023/07/02 09:04:58;;;;;;;6.78;4.10;;;;;;;;;;6219823;28;20042;-79
2023/07/02 09:07:58;;;;;;;3.72;2.58;;;;;;;;;;6217444;28;20044;-81
2023/07/02 09:11:19;;;;;;;4.87;2.83;;;;;;;;;;6217385;28;20033;-82
2023/07/02 09:14:30;;;;;;;8.02;4.30;;;;;;;;;;6210491;28;20080;-78
2023/07/02 09:17:32;;;;;;;3.70;2.92;;;;;;;;;;6216578;28;20435;-78
2023/07/02 09:20:34;;;;;;;9.07;4.10;;;;;;;;;;6215269;28;20026;-78
2023/07/02 09:23:37;;;;;;;5.80;3.50;;;;;;;;;;6218359;28;20034;-79
2023/07/02 09:26:38;;;;;;;5.72;3.47;;;;;;;;;;6218645;28;20022;-79
2023/07/02 09:29:39;;;;;;;8.03;3.43;;;;;;;;;;6214490;28;20508;-80
2023/07/02 09:32:40;;;;;;;;;;;;;;;;;;6215723;28;20021;-80
2023/07/02 09:35:40;;;;;;;6.57;4.40;;;;;;;;;;6214690;28;20367;-80
2023/07/02 09:38:40;;;;;;;7.10;3.85;;;;;;;;;;6216398;28;20104;-79
2023/07/02 09:41:42;;;;;;;5.97;3.60;;;;;;;;;;6211559;28;20538;-80
2023/07/02 09:44:43;;;;;;;10.18;4.18;;;;;;;;;;6215568;28;20034;-81
2023/07/02 09:47:47;;;;;;;7.60;3.70;;;;;;;;;;6194622;28;20064;-81
2023/07/02 09:50:48;;;;;;;6.93;4.28;;;;;;;;;;6217831;28;20026;-80
2023/07/02 09:53:48;;;;;;;6.38;3.97;;;;;;;;;;6214760;28;20029;-81
2023/07/02 09:56:49;;;;;;;7.20;4.45;;;;;;;;;;6213963;28;20384;-80
2023/07/02 09:59:50;;;;;;;7.47;4.73;;;;;;;;;;6214520;28;20034;-81
2023/07/02 10:02:51;;;;;;;8.43;4.78;;;;;;;;;;6218133;28;20461;-81
2023/07/02 10:06:01;;;;;;;8.82;4.82;;;;;;;;;;6198652;28;20022;-81
2023/07/02 10:09:03;;;;;;;11.02;4.20;;;;;;;;;;6192296;28;20018;-80
2023/07/02 10:12:18;;;;;;;6.32;3.75;;;;;;;;;;6217018;28;20088;-81
2023/07/02 10:15:28;;;;;;;7.15;4.32;;;;;;;;;;6214387;28;20029;-79
2023/07/02 10:18:28;;;;;;;5.47;3.40;;;;;;;;;;6215224;28;20638;-83
2023/07/02 10:21:29;;;;;;;6.07;3.47;;;;;;;;;;6217518;28;20025;-80
2023/07/02 10:24:29;;;;;;;3.67;2.80;;;;;;;;;;6215003;28;20076;-81
2023/07/02 10:27:33;;;;;;;5.57;3.13;;;;;;;;;;6206663;28;20104;-80
2023/07/02 10:30:38;;;;;;;8.85;3.67;;;;;;;;;;6216408;28;20033;-82
2023/07/02 10:33:43;;;;;;;9.07;3.83;;;;;;;;;;6216128;28;20109;-82
2023/07/02 10:36:46;;;;;;;6.82;3.97;;;;;;;;;;6214840;28;20054;-82
2023/07/02 10:39:46;;;;;;;3.75;1.98;;;;;;;;;;6212668;28;20045;-81
2023/07/02 10:42:46;;;;;;;5.03;3.20;;;;;;;;;;6216161;28;20477;-75
2023/07/02 10:45:46;;;;;;;6.03;3.40;;;;;;;;;;6217118;28;20050;-75
2023/07/02 10:48:54;;;;;;;6.27;3.47;;;;;;;;;;6211399;28;20065;-75
2023/07/02 10:51:58;;;;;;;5.68;3.28;;;;;;;;;;6211203;28;20018;-75
2023/07/02 10:54:58;;;;;;;5.20;3.60;;;;;;;;;;6213640;28;20030;-75
2023/07/02 10:58:05;;;;;;;5.53;3.60;;;;;;;;;;6217180;28;20037;-75
2023/07/02 11:01:05;;;;;;;4.38;3.15;;;;;;;;;;6219727;28;20457;-76
2023/07/02 11:04:05;;;;;;;3.77;2.67;;;;;;;;;;6219722;28;20076;-75
2023/07/02 11:07:06;;;;;;;5.23;2.97;;;;;;;;;;6218369;28;20097;-75
2023/07/02 11:10:06;;;;;;;5.73;3.30;;;;;;;;;;6214511;28;20027;-75
2023/07/02 11:13:25;;;;;;;4.72;2.72;;;;;;;;;;6220669;28;20438;-75
2023/07/02 11:16:26;;;;;;;4.40;2.55;;;;;;;;;;6219906;28;20033;-75
2023/07/02 11:19:26;;;;;;;5.03;2.70;;;;;;;;;;6220392;28;20112;-75
2023/07/02 11:22:34;;;;;;;5.73;2.90;;;;;;;;;;6221046;28;20033;-81
2023/07/02 11:25:34;;;;;;;5.15;3.35;;;;;;;;;;6218854;28;20796;-82
2023/07/02 11:28:35;;;;;;;3.63;2.80;;;;;;;;;;6213689;28;20053;-81
2023/07/02 11:31:36;;;;;;;4.27;3.03;;;;;;;;;;6221280;28;20133;-80
2023/07/02 11:34:37;;;;;;;6.30;2.90;;;;;;;;;;6220500;28;20048;-80
2023/07/02 11:37:37;;;;;;;5.55;2.45;;;;;;;;;;6220637;28;20080;-81
2023/07/02 11:40:38;;;;;;;5.47;3.00;;;;;;;;;;6217300;28;20131;-82
2023/07/02 11:43:38;;;;;;;;;;;;;;;;;;6198228;28;20484;-81
2023/07/02 11:46:39;;;;;;;4.72;2.05;;;;;;;;;;6220133;28;19967;-80
2023/07/02 11:49:39;;;;;;;4.70;2.33;;;;;;;;;;6214311;28;20091;-80
2023/07/02 11:52:39;;;;;;;3.40;2.47;;;;;;;;;;6215124;28;20087;-75
2023/07/02 11:55:39;;;;;;;3.67;2.63;;;;;;;;;;6220327;28;20029;-75
2023/07/02 11:58:40;;;;;;;4.13;2.42;;;;;;;;;;6193058;28;20029;-75
2023/07/02 12:01:41;;;;;;;4.70;3.17;;;;;;;;;;6220233;28;20041;-76
2023/07/02 12:04:42;;;;;;;4.37;2.57;;;;;;;;;;6219969;28;20029;-74
2023/07/02 12:07:42;;;;;;;3.97;2.65;;;;;;;;;;6214577;28;20025;-75
2023/07/02 12:10:42;;;;;;;3.50;2.57;;;;;;;;;;6218836;28;20088;-75
2023/07/02 12:13:43;;;;;;;7.27;2.60;;;;;;;;;;6207415;28;20253;-74
2023/07/02 12:16:43;;;;;;;5.90;3.03;;;;;;;;;;6219980;28;20025;-75
2023/07/02 12:19:43;;;;;;;3.70;2.80;;;;;;;;;;6219832;28;20022;-75
2023/07/02 12:22:44;;;;;;;4.87;3.10;;;;;;;;;;6217350;28;20480;-74
2023/07/02 12:25:44;;;;;;;3.92;2.67;;;;;;;;;;6213356;28;20014;-74
2023/07/02 12:28:44;;;;;;;4.13;3.03;;;;;;;;;;6219405;28;20078;-75
2023/07/02 12:31:45;;;;;;;4.07;2.07;;;;;;;;;;6201423;28;20022;-75
2023/07/02 12:34:45;;;;;;;4.67;2.80;;;;;;;;;;6199247;28;20036;-80
2023/07/02 12:37:46;;;;;;;4.43;1.55;;;;;;;;;;6214393;28;20100;-80
2023/07/02 12:40:48;;;;;;;2.20;1.30;;;;;;;;;;6215255;28;20017;-81
2023/07/02 12:43:48;;;;;;;5.68;1.45;;;;;;;;;;6226981;28;20021;-83
2023/07/02 12:46:49;;;;;;;2.87;1.73;;;;;;;;;;6218657;28;20400;-79
2023/07/02 12:49:49;;;;;;;1.37;1.00;;;;;;;;;;6218688;28;20093;-78
2023/07/02 12:52:49;;;;;;;1.90;0.90;;;;;;;;;;6214765;28;20019;-80
2023/07/02 12:55:49;;;;;;;6.40;2.33;;;;;;;;;;6216113;28;20404;-86
2023/07/02 12:58:51;;;;;;;2.60;1.37;;;;;;;;;;6195489;28;20116;-83
2023/07/02 13:01:51;;;;;;;3.40;1.40;;;;;;;;;;6223602;28;20021;-75
2023/07/02 13:04:51;;;;;;;3.42;1.83;;;;;;;;;;6216503;28;20025;-76
2023/07/02 13:07:52;;;;;;;3.33;1.80;;;;;;;;;;6217610;28;20546;-76
2023/07/02 13:10:52;;;;;;;3.33;1.50;;;;;;;;;;6201882;28;20088;-76
2023/07/02 13:13:53;;;;;;;3.30;1.53;;;;;;;;;;6219812;28;20030;-77
2023/07/02 13:16:53;;;;;;;3.40;1.40;;;;;;;;;;6217281;28;20026;-77
2023/07/02 13:19:56;;;;;;;2.53;1.90;;;;;;;;;;6218090;28;20045;-78
2023/07/02 13:22:56;;;;;;;5.55;1.95;;;;;;;;;;6218046;28;20014;-78
2023/07/02 13:25:56;;;;;;;2.57;1.70;;;;;;;;;;6217109;28;20009;-78
2023/07/02 13:28:57;;;;;;;6.60;3.10;;;;;;;;;;6219408;28;20384;-78
2023/07/02 13:31:57;;;;;;;7.77;3.90;;;;;;;;;;6218312;28;20098;-78
2023/07/02 13:35:00;;;;;;;6.93;3.30;;;;;;;;;;6212310;28;20043;-78
2023/07/02 13:38:01;;;;;;;6.78;3.40;;;;;;;;;;6198840;28;20669;-78
2023/07/02 13:41:04;;;;;;;3.03;1.90;;;;;;;;;;6215099;28;20026;-77
2023/07/02 13:44:05;;;;;;;2.80;1.52;;;;;;;;;;6217796;28;20018;-77
2023/07/02 13:47:05;;;;;;;2.13;1.65;;;;;;;;;;6217038;28;20046;-77
2023/07/02 13:50:06;;;;;;;3.43;1.80;;;;;;;;;;6214574;28;20021;-78
2023/07/02 13:53:06;;;;;;;4.10;1.53;;;;;;;;;;6217989;28;20014;-78
2023/07/02 13:56:06;;;;;;;1.70;1.30;;;;;;;;;;6217986;28;20137;-78
2023/07/02 13:59:06;;;;;;;3.33;1.73;;;;;;;;;;6214436;28;20013;-78
2023/07/02 14:02:07;;;;;;;3.10;1.73;;;;;;;;;;6217900;28;20808;-78
2023/07/02 14:05:07;;;;;;;6.53;2.73;;;;;;;;;;6217642;28;20477;-77
2023/07/02 14:08:08;;;;;;;7.93;2.27;;;;;;;;;;6218908;28;20566;-79
2023/07/02 14:11:10;;;;;;;2.08;1.88;;;;;;;;;;6217755;28;20388;-79
2023/07/02 14:14:10;;;;;;;5.00;2.30;;;;;;;;;;6217446;28;20028;-79
2023/07/02 14:17:11;;;;;;;6.77;1.83;;;;;;;;;;6217535;28;20564;-79
2023/07/02 14:20:11;;;;;;;3.23;2.13;;;;;;;;;;6218026;28;20018;-79
2023/07/02 14:23:11;;;;;;;2.20;1.80;;;;;;;;;;6217621;28;20066;-80
2023/07/02 14:26:11;;;;;;;2.05;1.38;;;;;;;;;;6218054;28;20384;-79
2023/07/02 14:29:12;;;;;;;3.93;1.87;;;;;;;;;;6218436;28;20042;-79
2023/07/02 14:32:12;;;;;;;2.13;1.83;;;;;;;;;;6221200;28;20018;-79
2023/07/02 14:35:12;;;;;;;3.72;1.88;;;;;;;;;;6203590;28;20173;-79
2023/07/02 14:38:12;;;;;;;2.83;1.83;;;;;;;;;;6221823;28;20026;-79
2023/07/02 14:41:13;;;;;;;3.00;1.67;;;;;;;;;;6221146;28;20018;-79
2023/07/02 14:44:14;;;;;;;5.68;2.00;;;;;;;;;;6221688;28;20030;-79
2023/07/02 14:47:16;;;;;;;3.92;2.15;;;;;;;;;;6221715;28;20030;-79
2023/07/02 14:50:16;;;;;;;3.33;2.03;;;;;;;;;;6204038;28;20025;-78
2023/07/02 14:53:17;;;;;;;2.57;2.00;;;;;;;;;;6217747;28;20048;-80
2023/07/02 14:56:18;;;;;;;;;;;;;;;;;;6219601;28;20025;-81
2023/07/02 14:59:18;;;;;;;2.78;1.73;;;;;;;;;;6220473;28;19968;-83
2023/07/02 15:02:18;;;;;;;;;;;;;;;;;;6221129;28;20547;-82
2023/07/02 15:05:18;;;;;;;1.75;1.35;;;;;;;;;;6221364;28;20303;-81
2023/07/02 15:08:20;;;;;;;2.47;1.58;;;;;;;;;;6216639;28;20448;-83
2023/07/02 15:11:20;;;;;;;2.00;1.50;;;;;;;;;;6217427;28;20472;-81
2023/07/02 15:14:21;;;;;;;2.60;1.67;;;;;;;;;;6218975;28;20024;-83
2023/07/02 15:17:21;;;;;;;4.60;1.77;;;;;;;;;;6219145;28;20384;-79
2023/07/02 15:20:21;;;;;;;3.00;1.50;;;;;;;;;;6203505;28;20053;-81
2023/07/02 15:23:25;;;;;;;5.70;1.70;;;;;;;;;;6221219;28;20376;-80
2023/07/02 15:26:25;;;;;;;1.42;1.20;;;;;;;;;;6214535;28;20022;-82
2023/07/02 15:29:26;;;;;;;1.47;1.30;;;;;;;;;;6215796;28;20048;-81
2023/07/02 15:32:27;;;;;;;2.27;1.33;;;;;;;;;;6215657;28;20388;-81
2023/07/02 15:35:27;;;;;;;2.13;1.38;;;;;;;;;;6219392;28;20041;-82
2023/07/02 15:38:28;;;;;;;3.28;1.58;;;;;;;;;;6220845;28;20026;-81
2023/07/02 15:41:28;;;;;;;2.10;1.30;;;;;;;;;;6211084;28;20018;-81
2023/07/02 15:44:29;;;;;;;2.20;1.50;;;;;;;;;;6211954;28;20392;-80
2023/07/02 15:47:29;;;;;;;2.47;1.33;;;;;;;;;;6220473;28;20018;-81
2023/07/02 15:50:29;;;;;;;4.28;1.80;;;;;;;;;;6216801;28;20166;-81
2023/07/02 15:53:29;;;;;;;1.63;1.38;;;;;;;;;;6220487;28;20014;-80
2023/07/02 15:56:32;;;;;;;1.95;1.73;;;;;;;;;;6219566;28;20097;-81
2023/07/02 15:59:32;;;;;;;1.65;1.20;;;;;;;;;;6220058;28;20083;-81
2023/07/02 16:02:32;;;;;;;5.20;2.00;;;;;;;;;;6213737;28;20116;-80
2023/07/02 16:05:37;;;;;;;1.80;1.37;;;;;;;;;;6220159;28;20133;-80
2023/07/02 16:08:38;;;;;;;2.10;1.65;;;;;;;;;;6220006;28;20028;-81
2023/07/02 16:11:47;;;;;;;2.50;1.45;;;;;;;;;;6220472;28;20041;-80
2023/07/02 16:14:47;;;;;;;2.65;1.50;;;;;;;;;;6219567;28;20022;-80
2023/07/02 16:17:47;;;;;;;1.63;1.50;;;;;;;;;;6218902;28;20739;-80
2023/07/02 16:20:54;;;;;;;2.60;1.33;;;;;;;;;;6218959;28;20049;-81
2023/07/02 16:23:54;;;;;;;1.77;1.33;;;;;;;;;;6219263;28;20044;-81
2023/07/02 16:26:56;;;;;;;2.72;1.35;;;;;;;;;;6219914;28;20465;-81
2023/07/02 16:29:56;;;;;;;3.67;2.00;;;;;;;;;;6219187;28;20041;-81
2023/07/02 16:32:57;;;;;;;3.72;1.50;;;;;;;;;;6219274;28;20044;-81
2023/07/02 16:35:57;;;;;;;3.88;1.98;;;;;;;;;;6219179;28;20029;-81
2023/07/02 16:38:57;;;;;;;1.63;1.30;;;;;;;;;;6219540;28;20489;-81
2023/07/02 16:41:57;;;;;;;2.78;1.90;;;;;;;;;;6218527;28;20029;-81
2023/07/02 16:44:59;;;;;;;2.03;1.30;;;;;;;;;;6218744;28;20034;-81
2023/07/02 16:48:01;;;;;;;2.85;1.65;;;;;;;;;;6219096;28;20034;-81
2023/07/02 16:51:03;;;;;;;2.05;1.63;;;;;;;;;;6219498;28;20032;-81
2023/07/02 16:54:04;;;;;;;2.30;1.48;;;;;;;;;;6219150;28;20064;-80
2023/07/02 16:57:05;;;;;;;4.97;1.60;;;;;;;;;;6213897;28;20025;-81
2023/07/02 17:00:05;;;;;;;2.30;1.35;;;;;;;;;;6217594;28;20664;-81
2023/07/02 17:03:06;;;;;;;3.92;1.70;;;;;;;;;;6218484;28;20026;-82
2023/07/02 17:06:06;;;;;;;1.48;1.33;;;;;;;;;;6218651;28;20457;-81
2023/07/02 17:09:22;;;;;;;2.95;2.10;;;;;;;;;;6219058;28;20024;-80
2023/07/02 17:12:22;;;;;;;1.70;1.35;;;;;;;;;;6218454;28;20021;-81
2023/07/02 17:15:22;;;;;;;1.60;1.50;;;;;;;;;;6215009;28;20550;-81
2023/07/02 17:18:23;;;;;;;3.50;1.77;;;;;;;;;;6220362;28;20464;-81
2023/07/02 17:21:23;;;;;;;2.87;1.40;;;;;;;;;;6219250;28;20518;-80
2023/07/02 17:24:24;;;;;;;4.47;1.47;;;;;;;;;;6213676;28;20484;-80
2023/07/02 17:27:27;;;;;;;3.10;1.63;;;;;;;;;;6215530;28;20100;-81
2023/07/02 17:30:27;;;;;;;1.55;1.40;;;;;;;;;;6218518;28;20018;-81
2023/07/02 17:33:28;;;;;;;3.55;1.40;;;;;;;;;;6216312;28;20092;-81
2023/07/02 17:36:28;;;;;;;2.97;1.50;;;;;;;;;;6216165;28;20476;-80
2023/07/02 17:39:29;;;;;;;1.73;1.35;;;;;;;;;;6212558;28;20330;-78
2023/07/02 17:42:31;;;;;;;4.25;1.83;;;;;;;;;;6198456;28;20099;-76
2023/07/02 17:45:31;;;;;;;3.05;1.70;;;;;;;;;;6217240;28;20404;-76
2023/07/02 17:48:31;;;;;;;2.33;2.03;;;;;;;;;;6211300;28;20028;-76
2023/07/02 17:51:33;;;;;;;3.65;1.58;;;;;;;;;;6218070;28;20026;-76
2023/07/02 17:54:37;;;;;;;3.53;1.80;;;;;;;;;;6216243;28;20800;-76
2023/07/02 17:57:38;;;;;;;6.13;2.28;;;;;;;;;;6214589;28;20446;-75
2023/07/02 18:00:38;;;;;;;2.25;1.67;;;;;;;;;;6217284;28;20113;-76